Time;durP1;ratioP1;P1;durP2;ratioP2;P2;SDS_P1;SDS_P2;PMS_P1;PMS_P2;Temp;Humidity;BMP_temperature;BMP_pressure;BME280_temperature;BME280_humidity;BME280_pressure;Samples;Min_cycle;Max_cycle;Signal;HPM_P1;HPM_P2
2022/03/04 00:01:21;;;;;;;9.05;6.05;;;;;;;3.27;72.62;99942.41;1756141;79;21262;-52
2022/03/04 00:03:47;;;;;;;11.25;5.30;;;;;;;3.28;72.61;99935.00;1749895;79;21035;-52
2022/03/04 04:37:31;;;;;;;10.43;5.10;;;;;;;2.26;69.22;99959.16;1742549;79;21089;-57
2022/03/04 04:39:57;;;;;;;11.28;5.30;;;;;;;2.27;68.92;99945.72;1669235;84;21031;-58
2022/03/04 04:42:24;;;;;;;7.90;4.37;;;;;;;2.34;68.77;99953.11;1719193;81;21051;-59
2022/03/04 04:44:51;;;;;;;10.00;4.97;;;;;;;2.44;68.56;99955.20;1729966;81;22243;-59
2022/03/04 04:47:17;;;;;;;8.70;4.87;;;;;;;2.48;68.49;99956.27;1731201;81;22425;-59
2022/03/04 04:49:43;;;;;;;9.00;4.62;;;;;;;2.50;68.42;99956.19;1712889;82;21049;-59
2022/03/04 04:52:10;;;;;;;11.60;5.58;;;;;;;2.54;68.50;99958.98;1711554;82;21023;-59
2022/03/04 04:54:36;;;;;;;12.15;5.17;;;;;;;2.56;68.12;99961.06;1736943;81;21060;-60
2022/03/04 04:57:04;;;;;;;8.25;4.47;;;;;;;2.62;67.89;99963.78;1711391;82;21191;-59
2022/03/04 04:59:31;;;;;;;9.60;4.67;;;;;;;2.69;67.81;99958.19;1706132;82;21056;-60
2022/03/04 05:01:57;;;;;;;9.20;5.03;;;;;;;2.71;67.56;99962.83;1707381;82;21099;-59
2022/03/04 05:04:24;;;;;;;9.25;4.40;;;;;;;2.72;67.47;99969.72;1725236;81;21093;-60
2022/03/04 05:06:50;;;;;;;10.00;5.53;;;;;;;2.72;67.40;99976.66;1736577;81;21061;-59
2022/03/04 05:09:17;;;;;;;9.90;5.22;;;;;;;2.72;67.26;99976.22;1711494;82;21230;-59
2022/03/04 05:11:44;;;;;;;8.88;5.08;;;;;;;2.74;67.15;99978.27;1739589;81;21062;-59
2022/03/04 05:14:10;;;;;;;9.70;5.10;;;;;;;2.82;66.80;99978.30;1704908;82;21070;-59
2022/03/04 05:16:37;;;;;;;8.63;4.72;;;;;;;2.83;66.80;99978.69;1742718;80;21069;-59
2022/03/04 05:19:03;;;;;;;9.08;4.85;;;;;;;2.84;66.78;99982.94;1682660;83;21670;-59
2022/03/04 05:21:29;;;;;;;11.78;5.33;;;;;;;2.84;66.64;99982.94;1707144;82;21344;-60
2022/03/04 05:23:59;;;;;;;7.95;4.62;;;;;;;2.83;66.57;99989.08;1731138;81;21080;-58
2022/03/04 05:26:31;;;;;;;11.88;4.70;;;;;;;2.82;66.50;99988.69;1717566;81;21451;-59
2022/03/04 05:28:59;;;;;;;10.55;5.28;;;;;;;2.85;66.08;99985.46;1736600;81;21532;-59
2022/03/04 05:31:26;;;;;;;10.18;5.28;;;;;;;2.90;66.08;99991.25;1707965;82;21126;-59
2022/03/04 05:33:52;;;;;;;9.55;4.47;;;;;;;2.85;65.91;99985.46;1710864;82;21493;-59
2022/03/04 05:36:19;;;;;;;10.82;5.20;;;;;;;2.84;66.14;99994.64;1670696;83;21113;-59
2022/03/04 05:38:46;;;;;;;9.90;4.78;;;;;;;2.81;66.25;99989.60;1668318;84;21127;-59
2022/03/04 05:41:13;;;;;;;8.65;4.42;;;;;;;2.78;66.03;99991.45;1681502;84;21559;-59
2022/03/04 05:43:39;;;;;;;8.98;4.83;;;;;;;2.86;66.09;99997.98;1667970;84;21085;-59
2022/03/04 05:46:06;;;;;;;8.25;4.67;;;;;;;2.90;66.08;100002.11;1692259;83;22085;-59
2022/03/04 05:48:33;;;;;;;9.50;5.30;;;;;;;2.91;65.91;100005.09;1665326;84;21055;-59
2022/03/04 05:50:59;;;;;;;11.88;5.90;;;;;;;2.87;65.59;100004.88;1691260;83;21052;-55
2022/03/04 05:53:26;;;;;;;9.83;4.95;;;;;;;2.84;65.81;100015.42;1679370;84;21175;-59
2022/03/04 05:55:52;;;;;;;13.93;4.72;;;;;;;2.74;66.07;100014.63;1667853;84;21589;-59
2022/03/04 05:58:19;;;;;;;10.40;5.55;;;;;;;2.78;66.08;100010.94;1675662;84;21217;-59
2022/03/04 06:00:45;;;;;;;12.18;5.30;;;;;;;2.84;65.88;100015.42;1658541;84;21111;-58
2022/03/04 06:03:11;;;;;;;12.45;5.95;;;;;;;2.86;65.93;100013.58;1666191;84;21012;-57
2022/03/04 06:05:38;;;;;;;9.53;4.72;;;;;;;2.85;65.90;100021.84;1656621;84;21130;-59
2022/03/04 06:08:05;;;;;;;8.38;5.00;;;;;;;2.83;65.96;100018.50;1666859;84;21074;-58
2022/03/04 06:10:31;;;;;;;10.93;5.72;;;;;;;2.79;66.00;100020.86;1668624;83;21208;-61
2022/03/04 06:12:58;;;;;;;14.15;6.53;;;;;;;2.83;65.99;100031.95;1673303;84;20989;-58
2022/03/04 06:15:25;;;;;;;10.63;5.37;;;;;;;2.87;65.96;100026.95;1668008;84;21674;-58
2022/03/04 06:17:51;;;;;;;9.78;4.95;;;;;;;2.87;65.73;100028.27;1675116;84;21375;-58
2022/03/04 06:20:18;;;;;;;11.12;5.50;;;;;;;2.86;65.78;100022.67;1673126;84;21098;-59
2022/03/04 06:22:44;;;;;;;11.48;5.78;;;;;;;2.84;65.82;100025.82;1663645;84;21130;-59
2022/03/04 06:25:11;;;;;;;10.08;5.33;;;;;;;2.83;65.82;100028.89;1670198;84;21084;-58
2022/03/04 06:27:45;;;;;;;14.40;5.40;;;;;;;2.90;65.77;100028.93;1656166;84;21598;-58
2022/03/04 06:30:12;;;;;;;14.85;5.47;;;;;;;2.95;65.33;100026.92;1663992;84;21097;-60
2022/03/04 06:32:38;;;;;;;9.93;6.10;;;;;;;2.98;65.44;100032.42;1673491;84;21561;-59
2022/03/04 06:35:06;;;;;;;10.68;6.15;;;;;;;2.94;65.41;100029.16;1668705;84;21111;-59
2022/03/04 06:44:16;;;;;;;8.90;5.28;;;;;;;2.79;65.60;100026.06;1705400;82;21189;-56
2022/03/04 06:46:42;;;;;;;9.23;4.35;;;;;;;2.73;64.60;100011.64;1766112;79;21578;-57
2022/03/04 06:49:10;;;;;;;8.75;4.45;;;;;;;2.70;64.45;100023.50;1722594;81;21144;-59
2022/03/04 06:51:38;;;;;;;10.75;4.65;;;;;;;2.69;64.71;100028.33;1702235;82;21032;-58
2022/03/04 06:54:05;;;;;;;8.78;4.80;;;;;;;2.71;64.76;100026.48;1724135;81;21014;-57
2022/03/04 06:56:31;;;;;;;8.28;4.25;;;;;;;2.71;64.49;100019.98;1764719;79;21528;-57
2022/03/04 06:58:58;;;;;;;9.00;4.40;;;;;;;2.74;64.65;100023.73;1767154;79;21062;-59
2022/03/04 07:01:24;;;;;;;10.80;5.28;;;;;;;2.91;64.92;100032.39;1759367;79;21111;-57
2022/03/04 07:03:51;;;;;;;8.73;4.55;;;;;;;2.92;64.14;100021.88;1755875;79;21058;-58
2022/03/04 07:06:19;;;;;;;14.58;5.10;;;;;;;2.98;64.13;100025.93;1760999;79;21157;-57
2022/03/04 07:08:47;;;;;;;10.23;5.00;;;;;;;2.97;63.58;100028.97;1716321;81;21084;-58
2022/03/04 07:11:14;;;;;;;10.82;5.25;;;;;;;2.95;63.50;100030.81;1763917;79;21145;-57
2022/03/04 07:13:42;;;;;;;11.22;5.22;;;;;;;2.96;63.01;100040.77;1763556;79;21043;-57
2022/03/04 07:16:10;;;;;;;12.07;5.20;;;;;;;2.94;63.25;100030.90;1729377;81;21794;-58
2022/03/04 07:18:39;;;;;;;9.18;4.97;;;;;;;2.95;62.87;100036.02;1751729;79;21125;-58
2022/03/04 07:21:05;;;;;;;8.40;4.72;;;;;;;2.97;62.75;100032.86;1763648;79;21078;-58
2022/03/04 07:23:34;;;;;;;8.35;5.45;;;;;;;2.97;62.89;100027.67;1745025;79;21035;-57
2022/03/04 07:26:01;;;;;;;9.83;5.55;;;;;;;2.95;62.46;100026.92;1725433;81;21218;-56
2022/03/04 07:28:27;;;;;;;8.80;5.00;;;;;;;2.88;62.09;100032.08;1725888;81;21043;-56
2022/03/04 07:30:54;;;;;;;8.78;5.20;;;;;;;2.87;62.46;100033.45;1764838;79;21015;-56
2022/03/04 07:33:22;;;;;;;9.75;4.83;;;;;;;2.90;62.56;100032.83;1739260;80;21055;-57
2022/03/04 07:35:49;;;;;;;8.75;4.67;;;;;;;2.94;62.53;100038.70;1721796;81;21077;-58
2022/03/04 07:38:17;;;;;;;9.35;4.67;;;;;;;2.91;61.99;100033.22;1758784;79;21023;-58
2022/03/04 07:40:45;;;;;;;7.58;3.87;;;;;;;2.91;61.50;100028.02;1762780;79;21121;-57
2022/03/04 07:43:11;;;;;;;7.70;3.77;;;;;;;2.99;61.58;100034.09;1763763;79;21415;-59
2022/03/04 07:45:38;;;;;;;10.18;4.92;;;;;;;3.05;61.57;100037.66;1723238;81;21054;-58
2022/03/04 07:48:05;;;;;;;10.30;4.50;;;;;;;3.11;61.16;100032.58;1723372;81;21070;-58
2022/03/04 07:50:32;;;;;;;10.13;4.45;;;;;;;3.20;61.04;100037.77;1727986;81;22011;-58
2022/03/04 07:53:03;;;;;;;12.15;5.40;;;;;;;3.25;60.13;100044.37;1738015;79;21073;-57
2022/03/04 07:55:32;;;;;;;8.53;4.30;;;;;;;3.28;60.35;100032.98;1769538;79;21485;-58
2022/03/04 07:57:59;;;;;;;8.48;4.83;;;;;;;3.31;60.06;100040.59;1759824;79;21562;-59
2022/03/04 08:00:26;;;;;;;9.00;4.42;;;;;;;3.33;59.97;100040.89;1732256;81;21053;-58
2022/03/04 08:02:54;;;;;;;10.60;4.87;;;;;;;3.37;60.15;100029.02;1741208;81;21569;-56
2022/03/04 08:05:24;;;;;;;8.80;4.85;;;;;;;3.39;60.25;100025.40;1728141;81;21744;-56
2022/03/04 08:07:53;;;;;;;8.40;4.37;;;;;;;3.43;60.32;100037.77;1694112;82;21046;-57
2022/03/04 08:10:20;;;;;;;11.33;4.58;;;;;;;3.46;60.54;100041.50;1732250;81;21478;-55
2022/03/04 08:12:47;;;;;;;10.30;4.95;;;;;;;3.49;59.40;100049.14;1765726;79;21071;-57
2022/03/04 08:15:15;;;;;;;7.55;4.03;;;;;;;3.52;59.99;100045.06;1732299;81;21037;-56
2022/03/04 08:17:45;;;;;;;8.75;4.42;;;;;;;3.50;60.23;100041.25;1727483;81;21078;-56
2022/03/04 08:20:13;;;;;;;8.85;4.53;;;;;;;3.58;59.73;100046.48;1736478;81;21071;-56
2022/03/04 08:22:42;;;;;;;9.08;3.98;;;;;;;3.63;59.30;100052.26;1764878;79;21459;-58
2022/03/04 08:25:11;;;;;;;7.37;4.03;;;;;;;3.64;58.92;100055.25;1771388;79;21117;-57
2022/03/04 08:27:41;;;;;;;8.50;4.58;;;;;;;3.64;59.22;100055.25;1766968;79;21577;-57
2022/03/04 08:30:11;;;;;;;9.98;4.40;;;;;;;3.59;58.52;100053.37;1760144;79;21018;-58
2022/03/04 08:32:38;;;;;;;9.98;4.92;;;;;;;3.64;58.61;100053.95;1761853;79;21041;-57
2022/03/04 08:35:05;;;;;;;8.78;4.67;;;;;;;3.64;58.64;100056.08;1736008;81;21029;-57
2022/03/04 08:37:37;;;;;;;8.88;4.42;;;;;;;3.59;58.23;100054.67;1712761;82;21062;-58
2022/03/04 08:40:08;;;;;;;9.13;4.70;;;;;;;3.60;58.62;100041.58;1708824;82;21171;-59
2022/03/04 08:42:36;;;;;;;8.30;3.95;;;;;;;3.65;59.12;100053.86;1734188;81;21027;-57
2022/03/04 09:03:38;;;;;;;8.93;3.77;;;;;;;4.00;58.69;100057.52;1728415;81;20470;-58
2022/03/04 09:06:05;;;;;;;7.90;4.20;;;;;;;3.97;56.80;100058.13;1723177;81;21053;-58
2022/03/04 09:08:35;;;;;;;8.00;3.98;;;;;;;4.00;56.86;100064.03;1733423;81;21134;-59
2022/03/04 09:11:03;;;;;;;9.70;4.03;;;;;;;4.07;57.15;100060.61;1727619;81;21583;-59
2022/03/04 09:13:34;;;;;;;9.15;3.67;;;;;;;4.09;56.53;100060.05;1697224;82;21039;-58
2022/03/04 09:16:06;;;;;;;6.47;3.42;;;;;;;4.14;56.54;100054.58;1720973;81;21507;-57
2022/03/04 09:18:34;;;;;;;8.58;4.50;;;;;;;4.22;57.16;100053.20;1769055;79;21114;-58
2022/03/04 09:21:03;;;;;;;8.90;4.17;;;;;;;4.26;56.76;100053.38;1763643;79;21054;-59
2022/03/04 09:23:31;;;;;;;7.47;4.15;;;;;;;4.30;56.65;100053.20;1765195;79;21058;-59
2022/03/04 09:25:58;;;;;;;11.05;4.30;;;;;;;4.31;56.47;100052.28;1758454;79;21086;-58
2022/03/04 09:28:26;;;;;;;7.78;3.83;;;;;;;4.36;56.49;100054.97;1721059;81;21124;-58
2022/03/04 09:30:54;;;;;;;9.25;4.15;;;;;;;4.36;56.41;100047.64;1769321;79;21454;-59
2022/03/04 09:33:22;;;;;;;7.08;4.12;;;;;;;4.38;56.68;100048.38;1732758;81;21314;-57
2022/03/04 09:35:50;;;;;;;8.33;4.03;;;;;;;4.44;56.65;100050.63;1766900;79;21047;-57
2022/03/04 09:38:17;;;;;;;7.28;3.80;;;;;;;4.48;56.98;100046.89;1728264;81;21096;-58
2022/03/04 09:40:44;;;;;;;9.63;4.58;;;;;;;4.50;57.57;100039.81;1758530;79;21054;-57
2022/03/04 09:43:10;;;;;;;7.97;4.67;;;;;;;4.55;57.13;100049.97;1764405;79;21444;-58
2022/03/04 09:45:37;;;;;;;10.78;4.37;;;;;;;4.55;57.01;100047.36;1757190;79;21072;-58
2022/03/04 09:48:06;;;;;;;9.33;4.53;;;;;;;4.56;57.32;100044.66;1724888;81;20978;-57
2022/03/04 09:50:34;;;;;;;8.15;4.15;;;;;;;4.59;57.68;100045.78;1762399;79;21059;-57
2022/03/04 09:53:09;;;;;;;10.58;4.70;;;;;;;4.63;57.67;100043.83;1762866;79;21050;-58
2022/03/04 09:55:39;;;;;;;7.55;4.15;;;;;;;4.65;57.72;100049.78;1759036;79;21054;-57
2022/03/04 09:58:15;;;;;;;7.62;4.47;;;;;;;4.69;57.63;100045.22;1757373;79;21141;-59
2022/03/04 10:00:45;;;;;;;9.00;5.00;;;;;;;4.74;57.14;100052.28;1751309;80;21105;-60
2022/03/04 10:03:21;;;;;;;10.20;3.98;;;;;;;4.74;57.10;100051.84;1765996;79;21015;-58
2022/03/04 10:05:54;;;;;;;9.98;4.42;;;;;;;4.79;56.79;100053.70;1722177;81;21065;-57
2022/03/04 10:08:21;;;;;;;10.23;4.33;;;;;;;4.80;55.88;100053.22;1704378;82;21104;-59
2022/03/04 10:10:54;;;;;;;7.50;4.25;;;;;;;4.78;56.30;100059.83;1733128;81;21537;-59
2022/03/04 10:13:49;;;;;;;10.95;5.30;;;;;;;4.79;56.45;100058.05;1734336;80;21029;-59
2022/03/04 10:16:33;;;;;;;9.50;4.97;;;;;;;4.79;57.00;100056.75;1707376;82;21577;-58
2022/03/04 10:19:15;;;;;;;8.50;3.98;;;;;;;4.79;56.88;100058.91;1721594;82;21682;-58
2022/03/04 10:21:54;;;;;;;8.48;4.42;;;;;;;4.74;54.86;100057.50;1737375;80;21096;-59
2022/03/04 10:24:39;;;;;;;9.65;4.65;;;;;;;4.74;55.89;100069.23;1708680;82;21165;-59
2022/03/04 10:27:10;;;;;;;9.83;4.92;;;;;;;4.73;56.48;100063.66;1714182;82;21058;-59
2022/03/04 10:29:47;;;;;;;10.20;4.70;;;;;;;4.75;55.77;100067.00;1714715;82;21059;-58
2022/03/04 10:32:26;;;;;;;11.25;4.72;;;;;;;4.76;55.58;100065.61;1689198;83;21080;-58
2022/03/04 10:35:04;;;;;;;10.23;4.45;;;;;;;4.73;55.63;100057.97;1694261;82;21579;-60
2022/03/04 10:37:54;;;;;;;8.25;4.40;;;;;;;4.77;56.20;100054.70;1710877;81;21090;-59
2022/03/04 10:40:18;;;;;;;;;;;;;;;4.82;55.74;100059.17;1738141;81;20995;-60
2022/03/04 10:42:57;;;;;;;8.10;4.60;;;;;;;4.86;55.60;100050.25;1689600;82;20169;-60
2022/03/04 10:45:29;;;;;;;8.08;4.67;;;;;;;4.83;55.24;100052.56;1737888;80;21549;-59
2022/03/04 10:48:07;;;;;;;12.93;4.33;;;;;;;4.84;54.49;100054.25;1711494;82;21071;-60
2022/03/04 10:52:59;;;;;;;8.93;4.28;;;;;;;4.98;55.06;100050.78;1832312;77;22670;-55
2022/03/04 10:55:42;;;;;;;8.23;3.98;;;;;;;4.96;54.93;100042.23;1818551;78;21074;-55
2022/03/04 10:58:29;;;;;;;8.10;4.22;;;;;;;5.03;54.92;100043.98;1766710;79;20904;-55
2022/03/04 11:01:18;;;;;;;8.93;4.10;;;;;;;5.08;54.25;100038.46;1777026;80;21492;-55
2022/03/04 11:03:47;;;;;;;7.45;4.28;;;;;;;5.11;54.50;100034.36;1770762;80;21007;-55
2022/03/04 11:06:18;;;;;;;7.42;4.33;;;;;;;5.14;54.23;100038.09;1727101;80;20978;-56
2022/03/04 11:08:47;;;;;;;8.68;4.75;;;;;;;5.18;53.97;100039.11;1763883;79;20930;-55
2022/03/04 11:11:16;;;;;;;9.35;4.58;;;;;;;5.23;53.07;100035.36;1765945;80;20983;-56
2022/03/04 11:13:51;;;;;;;11.53;4.55;;;;;;;5.21;52.60;100032.84;1764871;80;20943;-55
2022/03/04 11:16:19;;;;;;;9.78;4.20;;;;;;;5.23;53.38;100037.52;1751958;80;21027;-56
2022/03/04 11:18:46;;;;;;;9.45;4.87;;;;;;;5.25;53.35;100033.52;1771449;80;21034;-55
2022/03/04 11:21:14;;;;;;;10.32;4.25;;;;;;;5.29;52.68;100038.89;1771529;78;21022;-55
2022/03/04 11:23:44;;;;;;;9.28;4.50;;;;;;;5.34;52.08;100033.73;1725357;81;21606;-55
2022/03/04 11:26:20;;;;;;;8.33;4.17;;;;;;;5.21;51.56;100022.41;1707250;81;21125;-55
2022/03/04 11:28:50;;;;;;;12.93;4.78;;;;;;;5.28;52.47;100036.77;1746903;80;21037;-55
2022/03/04 11:31:20;;;;;;;8.90;4.53;;;;;;;5.26;51.61;100026.90;1760062;81;21051;-55
2022/03/04 11:34:00;;;;;;;8.93;4.80;;;;;;;5.32;51.78;100034.80;1751343;80;21045;-55
2022/03/04 11:36:34;;;;;;;7.55;3.75;;;;;;;5.39;51.48;100036.89;1736339;81;21049;-55
2022/03/04 11:39:12;;;;;;;8.38;4.40;;;;;;;5.39;50.38;100024.32;1752843;79;21067;-55
2022/03/04 11:41:54;;;;;;;8.68;4.25;;;;;;;5.34;50.91;100038.13;1755632;79;21086;-55
2022/03/04 11:44:23;;;;;;;10.60;5.12;;;;;;;5.36;51.21;100030.59;1740097;80;21645;-55
2022/03/04 11:47:04;;;;;;;8.35;4.67;;;;;;;5.47;51.62;100030.36;1723957;81;21896;-55
2022/03/04 11:49:49;;;;;;;10.72;5.00;;;;;;;5.56;51.96;100030.61;1756329;81;21074;-55
2022/03/04 11:52:29;;;;;;;11.05;5.03;;;;;;;5.63;51.19;100041.50;1713320;81;21680;-55
2022/03/04 11:55:11;;;;;;;7.62;4.10;;;;;;;5.67;50.60;100016.02;1717275;81;21048;-55
2022/03/04 11:57:44;;;;;;;8.60;4.45;;;;;;;5.70;50.34;100035.38;1751982;81;21121;-55
2022/03/04 12:00:18;;;;;;;8.63;4.28;;;;;;;5.62;50.49;100033.77;1752913;80;21557;-55
2022/03/04 12:02:54;;;;;;;10.40;4.92;;;;;;;5.64;50.88;100038.41;1758103;81;21199;-55
2022/03/04 12:05:31;;;;;;;9.70;5.47;;;;;;;5.55;50.37;100034.63;1730742;81;21024;-55
2022/03/04 12:08:06;;;;;;;8.60;4.45;;;;;;;5.54;51.28;100036.38;1719345;81;21551;-55
2022/03/04 12:10:45;;;;;;;7.03;4.45;;;;;;;5.55;52.04;100036.76;1752885;81;21099;-55
2022/03/04 12:13:24;;;;;;;9.75;5.10;;;;;;;5.58;51.41;100035.70;1755724;81;21744;-55
2022/03/04 12:16:04;;;;;;;9.13;5.08;;;;;;;5.61;51.47;100035.52;1744228;80;21676;-55
2022/03/04 12:18:39;;;;;;;9.55;5.30;;;;;;;5.66;51.71;100036.53;1749249;81;21939;-55
2022/03/04 12:21:26;;;;;;;7.37;3.90;;;;;;;5.66;51.15;100033.44;1720239;81;21795;-55
2022/03/04 12:23:59;;;;;;;10.95;4.92;;;;;;;5.69;50.90;100042.38;1717865;83;21007;-55
2022/03/04 12:26:37;;;;;;;9.70;4.53;;;;;;;5.64;50.92;100045.77;1749814;81;21074;-55
2022/03/04 12:29:07;;;;;;;11.95;5.20;;;;;;;5.70;50.96;100045.38;1754210;81;21831;-55
2022/03/04 13:04:23;;;;;;;10.65;5.28;;;;;;;5.01;53.28;100071.46;1707780;81;66465;-58
2022/03/04 13:07:00;;;;;;;9.48;5.35;;;;;;;4.93;53.82;100066.36;1686705;83;21028;-58
2022/03/04 13:09:28;;;;;;;9.78;5.85;;;;;;;4.93;53.50;100065.88;1724369;81;21605;-58
2022/03/04 13:12:04;;;;;;;10.08;5.62;;;;;;;5.15;53.19;100065.86;1718418;81;21187;-57
2022/03/04 13:14:32;;;;;;;10.75;6.05;;;;;;;5.42;52.52;100067.66;1700205;81;21034;-58
2022/03/04 13:16:59;;;;;;;10.28;5.55;;;;;;;5.76;51.63;100058.00;1721547;81;21438;-59
2022/03/04 13:19:29;;;;;;;8.63;4.65;;;;;;;5.69;51.95;100065.88;1728186;81;21156;-57
2022/03/04 13:22:09;;;;;;;11.70;5.80;;;;;;;5.57;52.41;100070.12;1734223;81;21093;-56
2022/03/04 13:24:42;;;;;;;10.23;5.37;;;;;;;5.74;51.72;100064.28;1731123;81;21129;-57
2022/03/04 13:27:16;;;;;;;9.55;5.00;;;;;;;5.83;51.28;100068.89;1731079;81;21093;-58
2022/03/04 13:29:58;;;;;;;9.60;4.80;;;;;;;5.82;51.29;100058.58;1715933;81;21069;-58
2022/03/04 13:32:28;;;;;;;10.98;5.58;;;;;;;5.64;51.52;100065.81;1719703;81;21549;-57
2022/03/04 13:35:01;;;;;;;10.85;5.92;;;;;;;5.48;51.83;100082.91;1670097;83;21601;-58
2022/03/04 13:37:41;;;;;;;9.68;6.05;;;;;;;5.27;52.22;100065.08;1723492;81;21149;-57
2022/03/04 13:40:19;;;;;;;11.35;5.62;;;;;;;5.12;53.01;100066.88;1724938;81;21061;-57
2022/03/04 13:42:52;;;;;;;11.83;5.58;;;;;;;4.99;52.96;100070.73;1717461;81;21142;-59
2022/03/04 13:45:46;;;;;;;10.80;5.20;;;;;;;4.82;53.29;100071.77;1695615;81;21530;-58
2022/03/04 13:48:14;;;;;;;9.90;5.45;;;;;;;4.71;53.64;100079.39;1723156;81;21049;-59
2022/03/04 13:50:45;;;;;;;9.38;5.05;;;;;;;4.56;53.99;100074.63;1724935;81;21124;-59
2022/03/04 13:53:14;;;;;;;10.13;6.05;;;;;;;4.50;54.46;100080.67;1728145;81;21089;-58
2022/03/04 13:55:55;;;;;;;11.83;6.40;;;;;;;4.42;54.63;100082.42;1726899;81;21102;-57
2022/03/04 13:58:30;;;;;;;10.35;5.62;;;;;;;4.35;54.86;100087.15;1721645;81;21070;-58
2022/03/04 14:01:04;;;;;;;8.85;5.10;;;;;;;4.34;55.26;100085.49;1633292;83;21552;-58
2022/03/04 14:03:43;;;;;;;9.35;5.70;;;;;;;4.33;55.28;100097.30;1674985;83;21130;-57
2022/03/04 14:06:11;;;;;;;8.75;5.62;;;;;;;4.33;55.13;100100.73;1674271;83;21604;-58
2022/03/04 14:08:40;;;;;;;8.95;5.50;;;;;;;4.32;54.66;100100.83;1676673;83;21155;-58
2022/03/04 14:11:12;;;;;;;9.90;5.78;;;;;;;4.35;55.03;100097.57;1688910;82;21571;-58
2022/03/04 14:13:43;;;;;;;12.75;6.33;;;;;;;4.36;55.07;100101.03;1701766;83;21519;-58
2022/03/04 14:16:15;;;;;;;11.22;6.30;;;;;;;4.38;55.22;100104.38;1679487;83;21078;-59
2022/03/04 14:18:45;;;;;;;9.98;5.65;;;;;;;4.34;54.96;100106.33;1646908;84;21706;-58
2022/03/04 14:21:13;;;;;;;13.93;6.35;;;;;;;4.30;54.51;100107.42;1668596;84;21572;-58
2022/03/04 14:23:41;;;;;;;10.13;5.28;;;;;;;4.27;54.75;100111.53;1666267;84;21160;-58
2022/03/04 14:26:09;;;;;;;10.60;5.83;;;;;;;4.26;55.15;100117.19;1675038;83;21577;-58
2022/03/04 14:28:36;;;;;;;13.88;5.80;;;;;;;4.21;55.29;100121.83;1667116;84;21115;-58
2022/03/04 14:31:10;;;;;;;14.75;5.70;;;;;;;4.15;54.81;100122.17;1673951;84;21602;-58
2022/03/04 14:33:47;;;;;;;10.63;5.95;;;;;;;4.12;54.83;100127.58;1670383;84;21796;-57
2022/03/04 14:36:15;;;;;;;10.58;5.72;;;;;;;4.06;55.20;100128.75;1668786;84;21720;-59
2022/03/04 14:38:42;;;;;;;10.10;5.50;;;;;;;4.04;55.06;100128.00;1664208;84;21098;-59
2022/03/04 14:41:14;;;;;;;9.00;4.92;;;;;;;3.98;54.43;100126.20;1664893;82;21641;-58
2022/03/04 14:43:41;;;;;;;12.85;6.05;;;;;;;3.95;54.36;100134.19;1675693;84;21031;-58
2022/03/04 14:46:10;;;;;;;9.05;5.70;;;;;;;3.83;54.60;100133.11;1699156;83;21122;-58
2022/03/04 14:48:38;;;;;;;10.35;5.90;;;;;;;3.76;54.90;100130.48;1683857;83;21058;-57
2022/03/04 14:51:06;;;;;;;10.10;6.10;;;;;;;3.70;55.12;100136.88;1684690;82;21086;-58
2022/03/04 14:53:35;;;;;;;10.10;5.85;;;;;;;3.63;55.34;100136.81;1685009;83;21561;-57
2022/03/04 14:56:06;;;;;;;14.35;5.83;;;;;;;3.56;55.47;100136.78;1678491;84;21034;-58
2022/03/04 14:58:33;;;;;;;13.83;6.15;;;;;;;3.50;55.77;100134.90;1681764;83;21257;-59
2022/03/04 15:01:04;;;;;;;11.10;5.70;;;;;;;3.47;55.62;100129.86;1687841;83;21679;-58
2022/03/04 15:03:33;;;;;;;8.25;5.47;;;;;;;3.36;55.92;100140.00;1679237;83;21105;-58
2022/03/04 15:44:51;;;;;;;10.78;6.62;;;;;;;2.31;59.61;100173.97;1665988;83;20270;-57
2022/03/04 15:47:17;;;;;;;11.93;6.70;;;;;;;2.27;59.59;100169.85;1652291;85;21364;-56
2022/03/04 15:49:47;;;;;;;9.70;5.78;;;;;;;2.28;59.07;100179.30;1678455;83;21099;-58
2022/03/04 15:52:18;;;;;;;12.43;6.35;;;;;;;2.25;57.54;100175.55;1665972;83;21103;-58
2022/03/04 15:54:47;;;;;;;12.88;6.12;;;;;;;2.15;56.51;100181.67;1680165;83;21134;-56
2022/03/04 15:57:18;;;;;;;9.53;5.75;;;;;;;2.14;56.61;100183.05;1711090;82;21217;-57
2022/03/04 15:59:51;;;;;;;10.63;5.78;;;;;;;2.14;56.66;100189.53;1671997;83;21091;-57
2022/03/04 16:02:21;;;;;;;9.93;5.55;;;;;;;2.07;56.48;100188.12;1699421;82;21560;-57
2022/03/04 16:04:54;;;;;;;9.95;5.22;;;;;;;2.03;56.80;100185.70;1680858;83;21023;-56
2022/03/04 16:07:24;;;;;;;11.78;5.70;;;;;;;2.01;57.41;100191.86;1664578;83;21028;-58
2022/03/04 16:09:58;;;;;;;10.08;5.90;;;;;;;1.94;57.96;100192.61;1671681;83;21244;-57
2022/03/04 16:12:32;;;;;;;14.85;7.03;;;;;;;1.93;58.00;100193.51;1646075;85;21036;-57
2022/03/04 16:15:05;;;;;;;11.97;6.40;;;;;;;1.92;58.03;100193.14;1642509;84;21069;-58
2022/03/04 16:20:20;;;;;;;8.83;5.97;;;;;;;1.94;58.24;100193.91;1841944;76;22716;-58
2022/03/04 16:22:50;;;;;;;11.38;6.17;;;;;;;2.00;58.19;100198.81;1805727;77;21089;-57
2022/03/04 16:25:22;;;;;;;10.88;5.33;;;;;;;1.97;57.83;100202.02;1799260;78;21792;-58
2022/03/04 16:27:52;;;;;;;11.68;5.60;;;;;;;1.97;57.41;100206.74;1808578;78;21533;-57
2022/03/04 16:30:21;;;;;;;9.30;4.80;;;;;;;1.95;57.43;100207.28;1772398;80;21038;-57
2022/03/04 16:32:59;;;;;;;8.58;4.85;;;;;;;1.91;57.09;100217.40;1775652;80;21033;-58
2022/03/04 16:35:31;;;;;;;13.05;5.85;;;;;;;1.86;56.64;100212.42;1752528;80;20946;-56
2022/03/04 16:38:00;;;;;;;9.53;5.22;;;;;;;1.84;56.64;100210.82;1773219;78;21460;-57
2022/03/04 16:40:28;;;;;;;12.15;5.70;;;;;;;1.76;56.88;100218.95;1744988;80;21119;-57
2022/03/04 16:42:59;;;;;;;12.05;6.15;;;;;;;1.78;57.24;100222.34;1746080;80;21080;-58
2022/03/04 16:45:27;;;;;;;10.95;5.30;;;;;;;1.80;57.54;100219.64;1738964;80;21007;-57
2022/03/04 16:47:58;;;;;;;9.75;5.12;;;;;;;1.81;57.62;100226.06;1757126;81;21061;-58
2022/03/04 16:50:25;;;;;;;10.13;5.70;;;;;;;1.80;57.72;100228.72;1751938;80;21201;-56
2022/03/04 16:52:53;;;;;;;9.53;5.03;;;;;;;1.78;57.27;100221.47;1759381;79;21122;-56
2022/03/04 16:55:21;;;;;;;9.10;5.53;;;;;;;1.77;56.65;100229.72;1749028;80;21117;-56
2022/03/04 16:57:49;;;;;;;16.35;6.03;;;;;;;1.74;56.56;100232.92;1742275;80;21037;-56
2022/03/04 17:00:19;;;;;;;9.75;5.37;;;;;;;1.72;56.74;100226.97;1719411;81;21101;-57
2022/03/04 17:02:49;;;;;;;9.40;5.60;;;;;;;1.73;56.77;100233.81;1758670;81;21224;-56
2022/03/04 17:05:18;;;;;;;9.10;5.03;;;;;;;1.69;56.90;100239.60;1758360;79;21058;-57
2022/03/04 17:07:46;;;;;;;10.88;6.12;;;;;;;1.66;56.78;100231.52;1757307;79;21003;-57
2022/03/04 17:10:18;;;;;;;10.23;5.45;;;;;;;1.69;56.98;100229.69;1758783;79;21042;-58
2022/03/04 17:12:46;;;;;;;12.45;6.20;;;;;;;1.68;57.00;100236.61;1746150;80;21497;-57
2022/03/04 17:15:13;;;;;;;11.53;4.50;;;;;;;1.64;56.93;100227.30;1773045;79;21043;-59
2022/03/04 17:17:43;;;;;;;11.20;5.90;;;;;;;1.69;56.96;100236.18;1775870;79;21054;-56
2022/03/04 17:20:12;;;;;;;10.90;6.08;;;;;;;1.63;56.97;100226.47;1756929;80;21690;-59
2022/03/04 17:22:42;;;;;;;8.80;4.80;;;;;;;1.68;57.02;100235.31;1769186;78;21081;-57
2022/03/04 17:25:11;;;;;;;9.98;5.00;;;;;;;1.69;57.09;100239.60;1771730;78;21550;-57
2022/03/04 17:27:39;;;;;;;10.58;5.00;;;;;;;1.67;57.18;100239.67;1773430;79;21241;-57
2022/03/04 17:30:11;;;;;;;10.38;5.37;;;;;;;1.66;57.20;100233.25;1773020;79;21082;-58
2022/03/04 17:32:40;;;;;;;9.83;5.30;;;;;;;1.62;57.05;100237.74;1773217;79;21015;-58
2022/03/04 17:35:08;;;;;;;11.00;5.42;;;;;;;1.63;57.41;100239.88;1759462;80;21118;-58
2022/03/04 17:37:37;;;;;;;10.18;5.97;;;;;;;1.61;57.44;100242.53;1741917;80;21569;-57
2022/03/04 17:40:07;;;;;;;9.45;5.12;;;;;;;1.58;57.55;100242.70;1732423;80;21136;-56
2022/03/04 17:42:35;;;;;;;8.98;5.60;;;;;;;1.58;57.43;100246.59;1760441;80;21070;-56
